Time;durP1;ratioP1;P1;durP2;ratioP2;P2;SDS_P1;SDS_P2;PMS_P1;PMS_P2;Temp;Humidity;BMP_temperature;BMP_pressure;BME280_temperature;BME280_humidity;BME280_pressure;Samples;Min_cycle;Max_cycle;Signal;HPM_P1;HPM_P2
2023/07/12 00:02:24;;;;;;;9.47;5.47;;;20.80;1.00;;;;;;4992066;28;20189;-56
2023/07/12 00:04:50;;;;;;;9.03;5.10;;;20.80;1.00;;;;;;4991713;28;20295;-56
2023/07/12 00:07:15;;;;;;;6.00;5.20;;;20.80;1.00;;;;;;4992027;28;20324;-56
2023/07/12 00:09:41;;;;;;;7.93;5.30;;;20.70;1.00;;;;;;4991848;28;20185;-56
2023/07/12 00:12:07;;;;;;;6.83;4.70;;;20.70;1.00;;;;;;4991518;28;20186;-56
2023/07/12 00:14:33;;;;;;;9.80;5.77;;;20.60;5.90;;;;;;4991886;28;20195;-56
2023/07/12 00:16:58;;;;;;;8.77;4.93;;;20.60;27.60;;;;;;4991639;28;20427;-56
2023/07/12 00:19:24;;;;;;;7.67;5.33;;;20.60;73.10;;;;;;4991489;28;20650;-56
2023/07/12 00:21:49;;;;;;;10.20;5.80;;;20.60;89.80;;;;;;4991280;28;20187;-55
2023/07/12 00:24:16;;;;;;;9.70;5.17;;;20.50;99.90;;;;;;4991284;28;20216;-56
2023/07/12 00:26:42;;;;;;;6.37;5.57;;;20.50;99.90;;;;;;4991872;28;20272;-56
2023/07/12 00:29:08;;;;;;;13.57;5.90;;;20.40;99.90;;;;;;4991643;28;20475;-55
2023/07/12 00:31:35;;;;;;;13.00;6.20;;;20.40;99.90;;;;;;4991572;28;20210;-55
2023/07/12 00:34:00;;;;;;;8.40;5.67;;;20.30;99.90;;;;;;4991448;28;20425;-56
2023/07/12 00:36:30;;;;;;;10.57;6.40;;;20.30;99.90;;;;;;4991607;28;20423;-56
2023/07/12 00:38:57;;;;;;;14.50;6.80;;;20.40;99.90;;;;;;4991653;28;20182;-57
2023/07/12 00:41:47;;;;;;;13.03;7.57;;;20.40;1.00;;;;;;4990024;28;20802;-56
2023/07/12 00:44:21;;;;;;;10.50;6.50;;;20.20;1.00;;;;;;4991547;28;20465;-56
2023/07/12 00:46:53;;;;;;;11.70;6.40;;;20.10;99.90;;;;;;4991294;28;20416;-56
2023/07/12 00:49:19;;;;;;;8.27;6.40;;;19.90;99.90;;;;;;4991196;28;20435;-56
2023/07/12 00:52:21;;;;;;;11.10;6.50;;;19.80;71.80;;;;;;4991574;28;20427;-56
2023/07/12 00:54:55;;;;;;;9.43;6.87;;;19.60;99.90;;;;;;5050683;28;20584;-58
2023/07/12 00:57:25;;;;;;;10.70;6.90;;;19.50;99.90;;;;;;4999722;28;20439;-57
2023/07/12 00:59:55;;;;;;;8.23;6.40;;;19.40;99.90;;;;;;4990969;28;20417;-58
2023/07/12 01:02:23;;;;;;;9.70;6.40;;;19.30;99.90;;;;;;4991187;28;20421;-58
2023/07/12 01:04:51;;;;;;;9.00;6.07;;;19.20;99.90;;;;;;4991377;28;20466;-57
2023/07/12 01:07:19;;;;;;;9.03;5.30;;;19.10;1.00;;;;;;4991033;28;20915;-57
2023/07/12 01:09:46;;;;;;;14.23;6.30;;;19.00;28.10;;;;;;4990973;28;20424;-57
2023/07/12 01:12:12;;;;;;;13.57;6.67;;;18.90;93.30;;;;;;4990963;28;20420;-57
2023/07/12 01:14:40;;;;;;;6.93;5.40;;;18.80;99.90;;;;;;4991196;28;20457;-57
2023/07/12 01:17:06;;;;;;;11.17;5.90;;;18.80;99.90;;;;;;4990790;28;20189;-57
2023/07/12 01:19:33;;;;;;;7.33;5.80;;;18.80;99.90;;;;;;4991051;28;20849;-56
2023/07/12 01:21:59;;;;;;;9.23;5.30;;;18.70;99.90;;;;;;4991099;28;20462;-57
2023/07/12 01:24:27;;;;;;;8.07;5.47;;;18.70;99.90;;;;;;4991124;28;20511;-57
2023/07/12 01:26:59;;;;;;;8.70;4.40;;;18.60;99.90;;;;;;4990636;28;20900;-57
2023/07/12 01:29:26;;;;;;;7.80;4.90;;;18.60;99.90;;;;;;4991399;28;20405;-57
2023/07/12 01:31:52;;;;;;;11.83;6.20;;;18.60;99.90;;;;;;4990447;28;20466;-57
2023/07/12 01:34:19;;;;;;;9.93;5.37;;;18.60;99.90;;;;;;4990329;28;20416;-57
2023/07/12 01:36:45;;;;;;;6.97;4.80;;;18.60;99.90;;;;;;4990799;28;20422;-58
2023/07/12 01:39:11;;;;;;;7.83;5.53;;;18.60;99.90;;;;;;4990743;28;20429;-57
2023/07/12 01:41:37;;;;;;;9.77;5.63;;;18.60;99.90;;;;;;4990419;28;20439;-57
2023/07/12 01:44:03;;;;;;;6.53;4.87;;;18.60;99.90;;;;;;4990679;28;20516;-57
2023/07/12 01:46:30;;;;;;;9.70;4.30;;;18.70;99.90;;;;;;4990769;28;20430;-58
2023/07/12 01:48:55;;;;;;;6.20;4.47;;;18.80;99.90;;;;;;4990611;28;20423;-58
2023/07/12 01:51:21;;;;;;;12.30;4.10;;;18.70;99.90;;;;;;4990493;28;20427;-56
2023/07/12 01:53:47;;;;;;;12.63;4.00;;;18.70;99.90;;;;;;4993623;28;20671;-57
2023/07/12 01:56:14;;;;;;;9.80;3.83;;;18.70;99.90;;;;;;4993584;28;20438;-57
2023/07/12 01:58:40;;;;;;;5.83;3.47;;;18.70;99.90;;;;;;4993882;28;20505;-56
2023/07/12 02:01:06;;;;;;;8.17;3.10;;;18.60;99.90;;;;;;4993746;28;20852;-56
2023/07/12 02:03:32;;;;;;;9.27;3.47;;;18.70;99.90;;;;;;4993826;28;20225;-54
2023/07/12 02:05:58;;;;;;;3.97;3.13;;;18.60;99.90;;;;;;4993316;28;20200;-57
2023/07/12 02:08:24;;;;;;;6.73;3.40;;;18.50;99.90;;;;;;4993631;28;20261;-56
2023/07/12 02:10:50;;;;;;;8.87;3.30;;;18.50;99.90;;;;;;4993707;28;20426;-56
2023/07/12 02:13:22;;;;;;;6.90;3.53;;;18.50;99.90;;;;;;4993784;28;20419;-57
2023/07/12 02:15:48;;;;;;;4.53;3.60;;;18.40;99.90;;;;;;4993724;28;20188;-56
2023/07/12 02:18:14;;;;;;;5.23;3.00;;;18.40;99.90;;;;;;4994064;28;20419;-57
2023/07/12 02:20:40;;;;;;;5.97;3.37;;;18.40;99.90;;;;;;4993466;28;20513;-57
2023/07/12 02:23:06;;;;;;;3.90;3.40;;;18.30;99.90;;;;;;4993536;28;20188;-56
2023/07/12 02:25:32;;;;;;;5.73;3.20;;;18.20;99.90;;;;;;4993297;28;20462;-56
2023/07/12 02:27:58;;;;;;;4.73;2.40;;;18.20;99.90;;;;;;4993286;28;20425;-56
2023/07/12 02:30:26;;;;;;;6.07;2.50;;;18.20;99.90;;;;;;4993242;28;20188;-57
2023/07/12 02:32:53;;;;;;;4.10;2.33;;;18.20;99.90;;;;;;4993453;28;20557;-56
2023/07/12 02:35:20;;;;;;;3.30;2.23;;;18.10;99.90;;;;;;4993375;28;20450;-57
2023/07/12 02:37:46;;;;;;;2.50;2.30;;;18.10;99.90;;;;;;4993134;28;20433;-55
2023/07/12 02:40:12;;;;;;;4.90;2.50;;;18.20;99.90;;;;;;4992812;28;20423;-56
2023/07/12 02:42:38;;;;;;;3.83;2.10;;;18.30;99.90;;;;;;4992877;28;20431;-56
2023/07/12 02:45:05;;;;;;;2.60;2.27;;;18.30;99.90;;;;;;4993095;28;20518;-54
2023/07/12 02:47:31;;;;;;;2.90;2.27;;;18.20;99.90;;;;;;4992427;28;20191;-56
2023/07/12 02:49:56;;;;;;;3.63;1.80;;;18.20;99.90;;;;;;4992936;28;20416;-57
2023/07/12 02:52:22;;;;;;;4.13;2.10;;;18.20;99.90;;;;;;4992772;28;20179;-56
2023/07/12 02:54:47;;;;;;;2.60;2.40;;;18.10;99.90;;;;;;4992287;28;20288;-56
2023/07/12 02:57:15;;;;;;;3.70;2.37;;;18.10;99.90;;;;;;4992866;28;20184;-57
2023/07/12 02:59:41;;;;;;;4.77;2.70;;;18.10;99.90;;;;;;4992541;28;20193;-56
2023/07/12 03:02:08;;;;;;;3.30;2.33;;;18.10;99.90;;;;;;4992764;28;20640;-56
2023/07/12 03:04:35;;;;;;;2.50;2.30;;;18.10;99.90;;;;;;4991444;28;20474;-57
2023/07/12 03:07:01;;;;;;;2.53;2.33;;;18.00;99.90;;;;;;4993211;28;20426;-56
2023/07/12 03:09:27;;;;;;;5.47;2.37;;;18.00;99.90;;;;;;4992936;28;20757;-56
2023/07/12 03:11:52;;;;;;;3.63;2.60;;;18.00;99.90;;;;;;4992763;28;20430;-56
2023/07/12 03:14:19;;;;;;;4.63;2.50;;;18.00;99.90;;;;;;4992930;28;20833;-55
2023/07/12 03:16:46;;;;;;;3.30;2.40;;;18.00;99.90;;;;;;4992452;28;20222;-56
2023/07/12 03:19:13;;;;;;;3.43;3.13;;;18.10;99.90;;;;;;4992577;28;20427;-56
2023/07/12 03:21:39;;;;;;;6.13;3.00;;;18.10;99.90;;;;;;4992316;28;20886;-56
2023/07/12 03:24:05;;;;;;;3.60;3.30;;;18.10;99.90;;;;;;4992593;28;20473;-56
2023/07/12 03:26:31;;;;;;;4.40;2.50;;;18.10;99.90;;;;;;4992756;28;20239;-56
2023/07/12 03:28:58;;;;;;;2.90;2.57;;;18.20;99.90;;;;;;4992454;28;20921;-56
2023/07/12 03:31:24;;;;;;;3.67;2.40;;;18.20;99.90;;;;;;4992336;28;20195;-56
2023/07/12 03:33:50;;;;;;;8.07;3.10;;;18.10;99.90;;;;;;4992342;28;20439;-55
2023/07/12 03:36:16;;;;;;;6.20;3.63;;;18.10;99.90;;;;;;4992434;28;20418;-55
2023/07/12 03:38:41;;;;;;;4.87;3.20;;;18.10;99.90;;;;;;4992107;28;20210;-55
2023/07/12 03:41:10;;;;;;;7.27;3.33;;;18.00;99.90;;;;;;4992499;28;20188;-56
2023/07/12 03:43:36;;;;;;;3.73;3.23;;;18.00;99.90;;;;;;4992321;28;20253;-55
2023/07/12 03:46:03;;;;;;;5.60;3.37;;;18.00;99.90;;;;;;4992002;28;20459;-56
2023/07/12 03:48:29;;;;;;;7.07;3.40;;;18.00;99.90;;;;;;4991770;28;20188;-55
2023/07/12 03:50:57;;;;;;;9.10;3.27;;;18.10;99.90;;;;;;4992241;28;20415;-56
2023/07/12 03:53:25;;;;;;;7.17;3.60;;;18.20;99.90;;;;;;4992447;28;20436;-56
2023/07/12 03:55:50;;;;;;;3.93;3.50;;;18.20;99.90;;;;;;4991520;28;20443;-56
2023/07/12 03:58:23;;;;;;;6.20;2.90;;;18.20;99.90;;;;;;4991870;28;20430;-56
2023/07/12 04:00:50;;;;;;;6.60;3.63;;;18.20;99.90;;;;;;4991700;28;20199;-56
2023/07/12 04:03:17;;;;;;;5.87;3.80;;;18.20;99.90;;;;;;4991803;28;20976;-56
2023/07/12 04:05:43;;;;;;;4.73;3.30;;;18.10;99.90;;;;;;4992284;28;20757;-56
2023/07/12 04:08:11;;;;;;;7.13;3.70;;;18.10;99.90;;;;;;4991943;28;20419;-57
2023/07/12 04:10:37;;;;;;;3.93;3.43;;;18.10;99.90;;;;;;4992164;28;20456;-57
2023/07/12 04:13:03;;;;;;;4.33;3.10;;;18.10;99.90;;;;;;4991403;28;20423;-56
2023/07/12 04:15:29;;;;;;;9.67;3.47;;;18.20;99.90;;;;;;4991465;28;20267;-56
2023/07/12 04:17:54;;;;;;;7.13;4.00;;;18.20;99.90;;;;;;4991813;28;20511;-56
2023/07/12 04:20:20;;;;;;;5.50;4.40;;;18.20;99.90;;;;;;4991496;28;20191;-56
2023/07/12 04:22:50;;;;;;;5.93;3.90;;;18.20;99.90;;;;;;4991696;28;20191;-56
2023/07/12 04:25:16;;;;;;;6.27;4.13;;;18.20;99.90;;;;;;4991762;28;20211;-56
2023/07/12 04:27:42;;;;;;;5.47;4.67;;;18.40;99.90;;;;;;4991838;28;20945;-56
2023/07/12 04:30:10;;;;;;;8.27;5.27;;;18.40;99.90;;;;;;4991621;28;20477;-56
2023/07/12 04:32:36;;;;;;;8.73;5.20;;;18.40;99.90;;;;;;4991308;28;20230;-56
2023/07/12 04:35:02;;;;;;;4.70;4.30;;;18.40;99.90;;;;;;4991142;28;20455;-56
2023/07/12 04:37:28;;;;;;;5.23;4.33;;;18.40;99.90;;;;;;4991338;28;20198;-55
2023/07/12 04:39:53;;;;;;;8.87;4.10;;;18.40;99.90;;;;;;4991858;28;20416;-56
2023/07/12 04:42:19;;;;;;;5.00;3.90;;;18.40;99.90;;;;;;4991313;28;20184;-56
2023/07/12 04:44:45;;;;;;;10.00;4.40;;;18.50;99.90;;;;;;4991338;28;20567;-56
2023/07/12 04:47:11;;;;;;;8.53;4.53;;;18.50;99.90;;;;;;4991477;28;20226;-56
2023/07/12 04:49:36;;;;;;;8.70;4.93;;;18.50;99.90;;;;;;4991447;28;20427;-55
2023/07/12 04:52:04;;;;;;;7.70;5.13;;;18.60;99.90;;;;;;4991336;28;20194;-56
2023/07/12 04:54:33;;;;;;;7.80;5.10;;;18.60;99.90;;;;;;4991213;28;20380;-56
2023/07/12 04:56:58;;;;;;;7.43;5.13;;;18.50;99.90;;;;;;4991447;28;20473;-56
2023/07/12 04:59:24;;;;;;;6.40;4.40;;;18.50;99.90;;;;;;4990891;28;20414;-57
2023/07/12 05:01:49;;;;;;;8.23;4.80;;;18.50;99.90;;;;;;5006235;28;20191;-57
2023/07/12 05:04:15;;;;;;;10.47;5.73;;;18.50;99.90;;;;;;4991409;28;20204;-56
2023/07/12 05:06:41;;;;;;;6.63;4.90;;;18.50;99.90;;;;;;4990978;28;20696;-57
2023/07/12 05:09:06;;;;;;;6.00;4.10;;;18.60;99.90;;;;;;4990803;28;20282;-56
2023/07/12 05:11:32;;;;;;;6.50;4.33;;;18.60;99.90;;;;;;4991306;28;20246;-57
2023/07/12 05:13:58;;;;;;;7.57;4.20;;;18.50;99.90;;;;;;4990914;28;20546;-56
2023/07/12 05:16:23;;;;;;;6.07;4.10;;;18.50;99.90;;;;;;4990755;28;20262;-56
2023/07/12 05:18:49;;;;;;;5.57;4.30;;;18.50;99.90;;;;;;4991300;28;20491;-56
2023/07/12 05:21:15;;;;;;;5.03;4.03;;;18.50;99.90;;;;;;4991093;28;20180;-56
2023/07/12 05:23:41;;;;;;;6.03;4.50;;;18.50;99.90;;;;;;4991230;28;20247;-56
2023/07/12 05:26:07;;;;;;;5.67;4.50;;;18.60;99.90;;;;;;4991002;28;20714;-56
2023/07/12 05:28:35;;;;;;;6.20;4.83;;;18.60;99.90;;;;;;4994028;28;20911;-57
2023/07/12 05:31:11;;;;;;;6.33;4.57;;;18.70;99.90;;;;;;4994348;28;20518;-56
2023/07/12 05:33:37;;;;;;;6.60;4.30;;;18.80;99.90;;;;;;4994355;28;20476;-56
2023/07/12 05:36:03;;;;;;;7.57;4.17;;;18.80;99.90;;;;;;4994462;28;20888;-56
2023/07/12 05:38:29;;;;;;;9.77;4.30;;;18.80;99.90;;;;;;4994012;28;20430;-56
2023/07/12 05:40:58;;;;;;;5.57;4.00;;;18.70;99.90;;;;;;4993873;28;20426;-56
2023/07/12 05:43:24;;;;;;;5.17;4.70;;;18.70;99.90;;;;;;4993963;28;20471;-57
2023/07/12 05:45:51;;;;;;;5.60;4.67;;;18.70;99.90;;;;;;4994283;28;20446;-57
2023/07/12 05:48:17;;;;;;;7.13;4.63;;;18.70;99.90;;;;;;4993877;28;20195;-57
2023/07/12 05:50:43;;;;;;;4.93;4.43;;;18.70;99.90;;;;;;4993701;28;20423;-56
2023/07/12 05:53:09;;;;;;;6.87;5.00;;;18.70;99.90;;;;;;4993599;28;20198;-55
2023/07/12 05:55:34;;;;;;;7.20;4.60;;;18.60;99.90;;;;;;4993116;28;20474;-57
2023/07/12 05:58:00;;;;;;;7.03;4.70;;;18.70;99.90;;;;;;4993727;28;20187;-56
2023/07/12 06:00:26;;;;;;;7.10;5.13;;;18.60;99.90;;;;;;4993863;28;20278;-58
2023/07/12 06:02:52;;;;;;;5.50;5.00;;;18.60;99.90;;;;;;4993748;28;20517;-58
2023/07/12 06:05:18;;;;;;;9.23;4.90;;;18.70;99.90;;;;;;4993573;28;20465;-57
2023/07/12 06:07:44;;;;;;;6.33;4.30;;;18.80;99.90;;;;;;4993614;28;20187;-57
2023/07/12 06:10:11;;;;;;;5.83;5.23;;;18.90;99.90;;;;;;4993573;28;20928;-56
2023/07/12 06:12:37;;;;;;;7.80;5.07;;;19.00;99.90;;;;;;4993586;28;20633;-57
2023/07/12 06:15:04;;;;;;;5.83;4.53;;;19.00;99.90;;;;;;4992849;28;20951;-56
2023/07/12 06:17:29;;;;;;;6.87;4.07;;;19.20;99.90;;;;;;4993187;28;20518;-56
2023/07/12 06:19:55;;;;;;;5.87;4.20;;;19.40;99.90;;;;;;4993764;28;20502;-57
2023/07/12 06:22:20;;;;;;;6.70;4.20;;;19.40;99.90;;;;;;4993568;28;20188;-56
2023/07/12 06:24:46;;;;;;;5.40;4.40;;;19.40;99.90;;;;;;4993141;28;20307;-57
2023/07/12 06:27:13;;;;;;;5.80;4.73;;;19.30;99.90;;;;;;4993161;28;20184;-57
2023/07/12 06:29:39;;;;;;;7.60;5.40;;;19.30;99.90;;;;;;4993695;28;20244;-56
2023/07/12 06:32:05;;;;;;;5.33;4.67;;;19.20;99.90;;;;;;4993308;28;20427;-56
2023/07/12 06:34:31;;;;;;;5.77;4.40;;;19.20;99.90;;;;;;4993201;28;20460;-56
2023/07/12 06:36:56;;;;;;;6.70;4.60;;;19.20;99.90;;;;;;4993320;28;20678;-57
2023/07/12 06:39:22;;;;;;;6.73;5.03;;;19.10;99.90;;;;;;4990970;28;20203;-54
2023/07/12 06:41:48;;;;;;;5.80;5.20;;;19.20;99.90;;;;;;4988697;28;20184;-54
2023/07/12 06:44:13;;;;;;;5.50;5.00;;;19.30;99.90;;;;;;4991601;28;20216;-57
2023/07/12 06:46:39;;;;;;;6.70;5.03;;;19.50;99.90;;;;;;4993402;28;20196;-55
2023/07/12 06:49:04;;;;;;;7.40;5.00;;;19.70;99.90;;;;;;4993154;28;20613;-55
2023/07/12 06:51:30;;;;;;;8.00;4.93;;;20.00;99.90;;;;;;4993099;28;20632;-54
2023/07/12 06:53:55;;;;;;;5.87;4.97;;;20.10;99.90;;;;;;4992577;28;20756;-55
2023/07/12 06:56:21;;;;;;;4.97;4.57;;;20.10;99.90;;;;;;4993020;28;20506;-55
2023/07/12 06:58:46;;;;;;;5.47;4.53;;;20.20;99.90;;;;;;4993056;28;20185;-56
2023/07/12 07:01:12;;;;;;;5.30;4.67;;;20.20;99.90;;;;;;4993282;28;20200;-55
2023/07/12 07:03:38;;;;;;;7.50;5.00;;;20.20;99.90;;;;;;4992761;28;20668;-57
2023/07/12 07:06:04;;;;;;;6.97;4.80;;;20.20;99.90;;;;;;4993180;28;20185;-56
2023/07/12 07:08:30;;;;;;;7.13;4.63;;;20.10;99.90;;;;;;4992904;28;20537;-55
2023/07/12 07:10:56;;;;;;;8.03;4.97;;;20.10;40.70;;;;;;4993077;28;20434;-57
2023/07/12 07:13:23;;;;;;;7.00;4.17;;;20.10;65.70;;;;;;4992895;28;20424;-54
2023/07/12 07:15:49;;;;;;;7.00;4.13;;;20.00;99.90;;;;;;4992451;28;20427;-55
2023/07/12 07:18:15;;;;;;;6.17;4.30;;;20.00;99.90;;;;;;4992585;28;20450;-56
2023/07/12 07:20:41;;;;;;;6.23;4.40;;;19.90;99.90;;;;;;4992515;28;20412;-56
2023/07/12 07:23:08;;;;;;;8.73;4.90;;;19.80;99.90;;;;;;5006854;28;20183;-59
2023/07/12 07:25:33;;;;;;;5.63;4.57;;;19.70;99.90;;;;;;4991603;28;20538;-58
2023/07/12 07:27:59;;;;;;;7.50;4.60;;;19.60;99.90;;;;;;4992264;28;20417;-61
2023/07/12 07:30:24;;;;;;;4.53;3.73;;;19.70;99.90;;;;;;4992230;28;20635;-63
2023/07/12 07:32:53;;;;;;;6.30;3.97;;;19.70;99.90;;;;;;4992112;28;20182;-62
2023/07/12 07:35:18;;;;;;;5.27;3.17;;;19.70;72.10;;;;;;4992373;28;20633;-63
2023/07/12 07:37:46;;;;;;;5.30;3.80;;;19.70;1.00;;;;;;4991009;28;20457;-63
2023/07/12 07:40:12;;;;;;;4.60;3.30;;;19.80;1.00;;;;;;4991514;28;20526;-63
2023/07/12 07:42:37;;;;;;;6.27;3.40;;;19.90;1.00;;;;;;4990926;28;20512;-61
2023/07/12 07:45:03;;;;;;;3.27;3.00;;;19.90;99.90;;;;;;4991404;28;20291;-61
2023/07/12 07:47:29;;;;;;;3.00;2.60;;;20.00;99.90;;;;;;4991019;28;20199;-61
2023/07/12 07:49:54;;;;;;;3.87;3.30;;;20.00;99.90;;;;;;4990951;28;20542;-61
2023/07/12 07:52:20;;;;;;;6.10;2.90;;;20.60;1.00;;;;;;4991307;28;20208;-62
2023/07/12 07:54:45;;;;;;;5.00;3.10;;;21.30;99.90;;;;;;4991159;28;20258;-62
2023/07/12 07:57:11;;;;;;;7.37;2.93;;;22.00;99.90;;;;;;4991283;28;20190;-58
2023/07/12 07:59:37;;;;;;;4.97;3.50;;;22.30;99.90;;;;;;4991322;28;20290;-56
2023/07/12 08:02:03;;;;;;;3.73;3.30;;;22.30;1.00;;;;;;4991244;28;20179;-60
2023/07/12 08:04:30;;;;;;;8.43;2.90;;;22.10;1.00;;;;;;4991658;28;20218;-61
2023/07/12 08:06:56;;;;;;;5.30;3.20;;;22.20;1.00;;;;;;4990592;28;20654;-60
2023/07/12 08:09:22;;;;;;;4.40;2.83;;;22.20;1.00;;;;;;4991607;28;20414;-61
2023/07/12 08:11:47;;;;;;;4.17;3.20;;;22.20;1.00;;;;;;4990607;28;20195;-63
2023/07/12 08:14:14;;;;;;;6.13;2.50;;;22.20;1.00;;;;;;4990822;28;20183;-61
2023/07/12 08:16:40;;;;;;;5.40;3.20;;;22.40;1.00;;;;;;4990976;28;20222;-60
2023/07/12 08:19:05;;;;;;;4.93;2.83;;;22.30;1.00;;;;;;4990902;28;20452;-59
2023/07/12 08:21:31;;;;;;;3.30;2.60;;;22.10;1.00;;;;;;4990978;28;20187;-63
2023/07/12 08:23:57;;;;;;;3.63;2.93;;;22.10;1.00;;;;;;4990894;28;20219;-61
2023/07/12 08:26:23;;;;;;;6.80;3.10;;;22.60;1.00;;;;;;4991092;28;20195;-60
2023/07/12 08:28:48;;;;;;;7.53;3.50;;;22.60;1.00;;;;;;4990605;28;20182;-62
2023/07/12 08:31:14;;;;;;;5.93;3.07;;;22.30;1.00;;;;;;4990562;28;20225;-61
2023/07/12 08:33:43;;;;;;;6.40;3.30;;;22.30;1.00;;;;;;4991050;28;20209;-62
2023/07/12 08:36:10;;;;;;;4.23;3.30;;;22.10;1.00;;;;;;4990556;28;20787;-59
2023/07/12 08:38:36;;;;;;;5.70;3.10;;;21.90;1.00;;;;;;4990524;28;20442;-58
2023/07/12 08:41:12;;;;;;;7.23;2.77;;;21.70;1.00;;;;;;4990578;28;20790;-58
2023/07/12 08:43:38;;;;;;;4.47;3.20;;;21.70;1.00;;;;;;4990521;28;20465;-58
2023/07/12 08:46:15;;;;;;;5.70;3.43;;;21.50;1.00;;;;;;4990856;28;20422;-59
2023/07/12 08:48:41;;;;;;;5.20;3.33;;;21.70;1.00;;;;;;4990467;28;20183;-59
2023/07/12 08:51:17;;;;;;;6.30;4.10;;;22.20;1.00;;;;;;4990582;28;20426;-58
2023/07/12 08:53:44;;;;;;;6.73;3.20;;;22.30;1.00;;;;;;4990243;28;20426;-60
2023/07/12 08:56:13;;;;;;;8.13;4.03;;;22.30;1.00;;;;;;4990280;28;20407;-59
2023/07/12 08:58:50;;;;;;;6.33;4.07;;;22.10;1.00;;;;;;4990136;28;20451;-59
2023/07/12 09:01:34;;;;;;;10.57;3.83;;;21.90;1.00;;;;;;4990672;28;20921;-57
2023/07/12 09:04:00;;;;;;;7.80;4.07;;;21.70;1.00;;;;;;4994263;28;20802;-56
2023/07/12 09:06:25;;;;;;;7.87;3.93;;;21.70;1.00;;;;;;4993760;28;20421;-59
2023/07/12 09:08:55;;;;;;;11.93;3.60;;;21.90;1.00;;;;;;4993913;28;20530;-56
2023/07/12 09:11:29;;;;;;;6.70;3.53;;;22.60;1.00;;;;;;4993356;28;20195;-58
2023/07/12 09:13:56;;;;;;;5.53;3.30;;;23.30;1.00;;;;;;4993342;28;20868;-59
2023/07/12 09:16:27;;;;;;;5.70;2.80;;;24.10;1.00;;;;;;4993509;28;20459;-58
2023/07/12 09:18:56;;;;;;;5.93;3.43;;;24.50;1.00;;;;;;4993656;28;20463;-55
2023/07/12 09:21:25;;;;;;;9.30;3.40;;;24.30;1.00;;;;;;4993740;28;20507;-55
2023/07/12 09:23:53;;;;;;;4.40;3.10;;;23.90;1.00;;;;;;4993223;28;20547;-57
2023/07/12 09:26:25;;;;;;;5.53;2.90;;;23.80;1.00;;;;;;4993308;28;20510;-55
2023/07/12 09:28:57;;;;;;;4.20;2.70;;;24.10;1.00;;;;;;4993532;28;20428;-56
2023/07/12 09:31:28;;;;;;;6.53;3.40;;;24.50;1.00;;;;;;4993310;28;20483;-55
2023/07/12 09:33:59;;;;;;;8.80;3.67;;;24.50;1.00;;;;;;4992145;28;20404;-59
2023/07/12 09:36:25;;;;;;;5.67;3.00;;;24.00;1.00;;;;;;4993188;28;20412;-58
2023/07/12 09:38:50;;;;;;;7.47;3.20;;;23.60;1.00;;;;;;4993326;28;20419;-58
2023/07/12 09:41:23;;;;;;;4.13;3.03;;;24.10;1.00;;;;;;4993028;28;20188;-56
2023/07/12 09:43:57;;;;;;;10.83;3.73;;;24.40;1.00;;;;;;4993361;28;20561;-58
2023/07/12 09:46:45;;;;;;;5.90;3.03;;;24.30;1.00;;;;;;4992836;28;20427;-58
2023/07/12 09:49:21;;;;;;;7.93;3.43;;;24.10;1.00;;;;;;4992972;28;20503;-58
2023/07/12 09:52:08;;;;;;;5.90;3.53;;;24.50;1.00;;;;;;4991657;28;20416;-56
2023/07/12 09:54:42;;;;;;;9.07;3.70;;;25.00;1.00;;;;;;4991404;28;20468;-58
2023/07/12 09:57:19;;;;;;;7.57;3.50;;;25.40;1.00;;;;;;4991087;28;20408;-59
2023/07/12 09:59:57;;;;;;;10.47;3.50;;;25.90;1.00;;;;;;4991604;28;20919;-58
2023/07/12 10:02:34;;;;;;;4.87;3.10;;;26.10;1.00;;;;;;4991156;28;20936;-58
2023/07/12 10:05:12;;;;;;;9.00;3.83;;;26.30;1.00;;;;;;4991763;28;20858;-58
2023/07/12 10:07:55;;;;;;;14.13;3.87;;;26.30;1.00;;;;;;4991624;28;20989;-58
2023/07/12 10:10:34;;;;;;;5.23;3.27;;;26.50;1.00;;;;;;4991514;28;20913;-57
2023/07/12 10:13:07;;;;;;;5.63;3.63;;;26.60;1.00;;;;;;4991104;28;20408;-58
2023/07/12 10:15:37;;;;;;;3.90;3.00;;;26.40;1.00;;;;;;4991773;28;20799;-56
2023/07/12 10:18:03;;;;;;;8.60;3.30;;;26.60;1.00;;;;;;4991782;28;20450;-59
2023/07/12 10:20:29;;;;;;;7.80;4.37;;;27.20;1.00;;;;;;4991568;28;20455;-56
2023/07/12 10:22:56;;;;;;;5.80;3.60;;;27.10;1.00;;;;;;4991692;28;20670;-58
2023/07/12 10:25:27;;;;;;;7.53;3.50;;;26.90;1.00;;;;;;4991182;28;20583;-56
2023/07/12 10:28:20;;;;;;;8.70;3.70;;;27.30;1.00;;;;;;4991224;28;20415;-57
2023/07/12 10:30:48;;;;;;;5.50;3.30;;;27.70;1.00;;;;;;4998857;28;20428;-55
2023/07/12 10:33:22;;;;;;;8.90;3.90;;;27.20;99.90;;;;;;4991708;28;20420;-57
2023/07/12 10:35:55;;;;;;;6.47;3.40;;;26.70;99.90;;;;;;4991104;28;20427;-57
2023/07/12 10:38:21;;;;;;;7.43;3.47;;;26.40;99.90;;;;;;4991575;28;20416;-57
2023/07/12 10:41:08;;;;;;;7.10;3.30;;;26.50;99.90;;;;;;4991258;28;20427;-57
2023/07/12 10:43:42;;;;;;;12.10;3.47;;;27.10;99.90;;;;;;4991075;28;20499;-57
2023/07/12 10:46:17;;;;;;;6.43;3.37;;;27.30;99.90;;;;;;4991225;28;20477;-57
2023/07/12 10:48:49;;;;;;;5.43;3.63;;;26.50;99.90;;;;;;4991401;28;20876;-57
2023/07/12 10:51:27;;;;;;;8.87;3.60;;;26.30;99.90;;;;;;4991042;28;20499;-55
2023/07/12 10:53:55;;;;;;;12.27;3.40;;;26.10;99.90;;;;;;4953871;28;1078411;-56
2023/07/12 10:56:38;;;;;;;7.40;3.47;;;25.80;99.90;;;;;;4992477;28;20173;-57
2023/07/12 10:59:42;;;;;;;7.13;3.20;;;25.90;99.90;;;;;;4992061;28;20420;-57
2023/07/12 11:02:21;;;;;;;13.07;4.40;;;25.50;99.90;;;;;;4992228;28;20420;-57
2023/07/12 11:04:49;;;;;;;8.63;3.53;;;25.10;99.90;;;;;;4992190;28;20506;-57
2023/07/12 11:07:14;;;;;;;7.47;3.40;;;24.90;99.90;;;;;;4992133;28;20459;-57
2023/07/12 11:09:46;;;;;;;7.87;4.37;;;24.60;99.90;;;;;;4991771;28;20495;-58
2023/07/12 11:12:13;;;;;;;7.23;3.47;;;24.20;99.90;;;;;;4992182;28;20546;-59
2023/07/12 11:14:38;;;;;;;7.43;3.33;;;24.50;99.90;;;;;;4991690;28;20424;-58
2023/07/12 11:17:07;;;;;;;7.77;3.70;;;25.10;1.00;;;;;;4991678;28;20893;-57
2023/07/12 11:19:42;;;;;;;9.90;3.60;;;26.10;99.90;;;;;;4991537;28;20645;-57
2023/07/12 11:22:46;;;;;;;5.93;3.23;;;26.90;99.90;;;;;;4991880;28;20419;-56
2023/07/12 11:25:44;;;;;;;7.13;3.00;;;27.10;99.90;;;;;;5012918;28;20483;-57
2023/07/12 11:28:47;;;;;;;6.33;3.17;;;27.20;99.90;;;;;;5023649;28;20519;-57
2023/07/12 11:31:29;;;;;;;6.90;2.60;;;27.60;99.90;;;;;;5051210;28;20433;-55
2023/07/12 11:34:17;;;;;;;11.97;3.17;;;28.10;99.90;;;;;;4997376;28;20470;-57
2023/07/12 11:36:49;;;;;;;10.17;3.00;;;28.50;99.90;;;;;;4991300;28;20420;-57
2023/07/12 11:39:20;;;;;;;5.37;2.90;;;28.90;99.90;;;;;;4991234;28;20461;-56
2023/07/12 11:41:57;;;;;;;5.70;3.10;;;29.00;99.90;;;;;;4991666;28;20745;-56
2023/07/12 11:44:25;;;;;;;8.20;2.90;;;28.90;99.90;;;;;;4991510;28;20460;-57
2023/07/12 11:46:51;;;;;;;8.20;3.53;;;28.40;99.90;;;;;;4990931;28;20803;-56
2023/07/12 11:49:22;;;;;;;8.33;3.40;;;27.50;99.90;;;;;;4991740;28;20507;-56
2023/07/12 11:51:52;;;;;;;14.03;4.20;;;26.70;99.90;;;;;;4991017;28;20458;-57
2023/07/12 11:54:26;;;;;;;6.00;2.80;;;26.00;99.90;;;;;;4991087;28;20529;-58
2023/07/12 11:56:56;;;;;;;5.93;3.50;;;25.20;99.90;;;;;;4991318;28;20842;-57
2023/07/12 11:59:23;;;;;;;5.73;3.60;;;24.80;99.90;;;;;;4990882;28;20499;-57
2023/07/12 12:01:52;;;;;;;9.37;3.60;;;24.50;99.90;;;;;;4991311;28;20517;-57
2023/07/12 12:04:22;;;;;;;7.20;3.33;;;25.20;99.90;;;;;;4990687;28;20468;-57
2023/07/12 12:06:52;;;;;;;6.17;3.07;;;26.20;99.90;;;;;;4991113;28;20416;-58
2023/07/12 12:09:24;;;;;;;13.23;3.67;;;27.20;99.90;;;;;;4990859;28;20975;-57
2023/07/12 12:11:50;;;;;;;9.33;3.37;;;27.50;99.90;;;;;;4990648;28;20436;-56
2023/07/12 12:14:20;;;;;;;6.87;3.47;;;27.30;99.90;;;;;;4991039;28;20425;-57
2023/07/12 12:16:54;;;;;;;6.17;3.30;;;26.90;99.90;;;;;;4990762;28;20431;-57
2023/07/12 12:19:22;;;;;;;5.47;3.27;;;26.60;99.90;;;;;;4990734;28;20412;-56
2023/07/12 12:21:59;;;;;;;13.27;3.00;;;27.20;99.90;;;;;;4990981;28;20869;-56
2023/07/12 12:24:25;;;;;;;6.50;3.10;;;28.20;99.90;;;;;;4990680;28;20478;-56
2023/07/12 12:26:52;;;;;;;6.70;3.07;;;28.70;99.90;;;;;;4990615;28;20428;-55
2023/07/12 12:29:22;;;;;;;8.77;3.40;;;28.10;99.90;;;;;;4990843;28;20177;-55
2023/07/12 12:31:53;;;;;;;8.60;3.27;;;26.90;99.90;;;;;;4990634;28;20461;-56
2023/07/12 12:34:20;;;;;;;10.47;3.10;;;26.70;99.90;;;;;;4990496;28;20971;-56
2023/07/12 12:37:05;;;;;;;8.07;3.17;;;26.80;99.90;;;;;;4990619;28;20738;-55
2023/07/12 12:39:31;;;;;;;5.70;2.60;;;26.70;99.90;;;;;;4990299;28;21061;-56
2023/07/12 12:41:59;;;;;;;7.27;2.17;;;26.00;99.90;;;;;;4990547;28;20424;-56
2023/07/12 12:44:30;;;;;;;5.67;2.23;;;24.90;99.90;;;;;;4990151;28;20512;-55
2023/07/12 12:46:59;;;;;;;6.00;2.17;;;23.80;99.90;;;;;;4990047;28;20420;-55
2023/07/12 12:49:32;;;;;;;3.17;2.27;;;22.80;99.90;;;;;;4991077;28;20505;-57
2023/07/12 12:52:24;;;;;;;5.07;2.20;;;22.20;99.90;;;;;;4990601;28;20412;-57
2023/07/12 12:54:49;;;;;;;4.27;1.80;;;21.70;99.90;;;;;;4997644;28;20527;-57
2023/07/12 12:57:16;;;;;;;6.40;2.30;;;21.00;99.90;;;;;;4990655;28;20450;-56